Kenai Municipal Airport Kenai US
ICAO: PAEN
IATA:
Category: Medium
Scheduled Services:

Elevation: 99 ft
TransAlt. 18000 ft.

Airport Communications:
ATIS:120.3
ANCHORAGE CNTR:125.7
CTAF:121.3
RDO:122.65
GND:121.9
TWEB:117.6
TWR:121.3

PAEN Zoom In..

Runways:

(A) RW 01L length 7830 ft width 150 ft
---- / hdg 12

(B) RW 01R length 2000 ft width 60 ft
---- / hdg 12

(C) RW 19L length 2000 ft width 60 ft
---- / hdg 192

(D) RW 19R length 7830 ft width 150 ft
ILS 108.90 / hdg 192

Location; PAEN
Day. 27 / Time. 08.10 Zulu
* Altimeter: 29.46
* Temperature: -01° c. -30.2°f.
* Wind from: 020° Speed 11 kn.
Dewpoint: -03° c.
Visibility: 9 Statute Miles.
Clouds: Overcast 1000 ft.

PAEN 270810Z AUTO 02011KT 9SM UP OVC010 M01/M03 A2946 RMK AO2 UPB02 P0000 T10111028 TSNO

Going to: --> -->


Wind From 020°
Speed 11 kn.

 
 
jpsmedia worldairports.se 2020   terms of use